Katwijk aan Zee, Netherlands
Current Conditions -  °F | °C
As of 11:55 AM on Wednesday 22 Oct 2014 (Local Time) from EHAM Reporting Station
Rain Showers Rain Showers  
Wind Chill: 50°   Ceiling: Unl
Heat Index: 50°   Visibility: 6mi
Dew Point: 45°   Wind: 21mph
Humidity: 82%   Direction: 320°NW
Pressure: 30.06"   Gusts: 36mph
Location:  52.2°N, 4.4°E
Report Text: EHAM 220955Z 32018G31KT 290V360 9999 -SHRA FEW025CB SCT032 10/07 Q1018 TEMPO 31015G25KT
Loading
Personal Weather Stations






























Interactive Weather Map
Tropical Storm Tracking
New forecast layout! Learn more

10-Day Weather Forecast

Advertisements
Track Severe Weather on mobile